Terminal Aerodrome Forecast
Issued by NWS

Home | Current Version | Previous Version | Text Only | Print | Product List | Glossary On
Versions: 1 2 3 4 5 6 7 8 9 10 11 12 13 14 15 16 17 18 19 20 21 22 23 24 25 26 27 28 29
367
FTUS41 KOKX 252123 AAA
TAFHPN
TAF AMD
KHPN 252123Z 2521/2618 24010KT P6SM VCSH BKN060
      TEMPO 2521/2522 27015G25KT 4SM -SHRA
     FM252300 26007KT P6SM BKN060
     FM260100 27004KT P6SM SCT060
     FM260300 29004KT P6SM SCT120
     FM261300 28007KT P6SM SKC
     FM261600 27010KT P6SM SCT050
      AMD NOT SKED=

USA.gov is the U.S. government's official web portal to all federal, state and local government web resources and services.